Time;durP1;ratioP1;P1;durP2;ratioP2;P2;SDS_P1;SDS_P2;PMS_P1;PMS_P2;Temp;Humidity;BMP_temperature;BMP_pressure;BME280_temperature;BME280_humidity;BME280_pressure;Samples;Min_cycle;Max_cycle;Signal;HPM_P1;HPM_P2
2023/09/01 00:01:51;;;;;;;0.10;0.10;;;16.40;99.90;;;;;;5011287;28;20109;-79
2023/09/01 00:04:35;;;;;;;0.00;0.00;;;16.40;99.90;;;;;;5011920;28;20022;-78
2023/09/01 00:07:01;;;;;;;1.08;1.08;;;16.50;99.90;;;;;;5011812;28;20489;-78
2023/09/01 00:09:27;;;;;;;0.50;0.35;;;16.40;99.90;;;;;;5011601;28;20030;-78
2023/09/01 00:11:52;;;;;;;0.00;0.00;;;16.50;99.90;;;;;;5011407;28;20026;-78
2023/09/01 00:14:18;;;;;;;0.65;0.65;;;16.70;99.90;;;;;;5011435;28;20064;-79
2023/09/01 00:16:44;;;;;;;0.28;0.28;;;16.50;99.90;;;;;;5011690;28;20359;-79
2023/09/01 00:19:10;;;;;;;0.10;0.10;;;16.50;99.90;;;;;;5011631;28;20057;-80
2023/09/01 00:21:36;;;;;;;0.15;0.15;;;16.50;99.90;;;;;;5011551;28;20071;-79
2023/09/01 00:24:03;;;;;;;0.77;0.77;;;16.50;99.90;;;;;;5010641;28;20043;-79
2023/09/01 00:26:29;;;;;;;0.00;0.00;;;16.60;99.90;;;;;;5011376;28;20363;-78
2023/09/01 00:28:55;;;;;;;0.05;0.05;;;16.60;99.90;;;;;;5011150;28;20018;-78
2023/09/01 00:31:21;;;;;;;0.40;0.40;;;16.70;99.90;;;;;;5010347;28;20032;-78
2023/09/01 00:33:47;;;;;;;3.25;1.48;;;16.60;99.90;;;;;;5006339;28;20073;-81
2023/09/01 00:36:13;;;;;;;1.35;0.65;;;16.60;99.90;;;;;;4995976;28;20029;-80
2023/09/01 00:38:39;;;;;;;0.00;0.00;;;16.50;99.90;;;;;;4997344;28;20029;-82
2023/09/01 00:41:05;;;;;;;0.57;0.57;;;16.50;99.90;;;;;;5005934;28;20374;-79
2023/09/01 00:43:31;;;;;;;3.97;0.88;;;16.40;99.90;;;;;;5001204;28;20053;-78
2023/09/01 00:45:57;;;;;;;0.68;0.60;;;16.40;99.90;;;;;;4998575;28;20489;-80
2023/09/01 00:48:23;;;;;;;0.38;0.38;;;16.40;99.90;;;;;;5004680;28;20030;-80
2023/09/01 00:50:50;;;;;;;0.47;0.47;;;16.30;99.90;;;;;;5004173;28;20025;-82
2023/09/01 00:53:18;;;;;;;0.43;0.43;;;16.30;99.90;;;;;;5006163;28;20042;-82
2023/09/01 00:55:44;;;;;;;0.32;0.32;;;16.30;99.90;;;;;;5014939;28;20022;-80
2023/09/01 00:58:11;;;;;;;0.17;0.17;;;16.30;99.90;;;;;;4994879;28;20049;-80
2023/09/01 01:00:37;;;;;;;0.00;0.00;;;16.30;99.90;;;;;;5005747;28;20125;-82
2023/09/01 01:03:05;;;;;;;0.10;0.10;;;16.50;99.90;;;;;;4991537;28;20134;-79
2023/09/01 01:05:52;;;;;;;0.00;0.00;;;16.40;99.90;;;;;;5002564;28;20034;-79
2023/09/01 01:08:59;;;;;;;0.10;0.10;;;16.50;99.90;;;;;;5003785;28;20410;-79
2023/09/01 01:11:43;;;;;;;0.10;0.10;;;16.50;99.90;;;;;;4994670;28;20477;-77
2023/09/01 01:14:18;;;;;;;0.10;0.10;;;16.60;99.90;;;;;;4993915;28;20031;-77
2023/09/01 01:16:44;;;;;;;0.20;0.20;;;16.70;99.90;;;;;;4996082;28;20387;-79
2023/09/01 01:19:35;;;;;;;0.22;0.22;;;16.70;99.90;;;;;;4995664;28;20034;-77
2023/09/01 01:22:04;;;;;;;0.00;0.00;;;16.60;99.90;;;;;;4996779;28;20033;-78
2023/09/01 01:24:32;;;;;;;0.43;0.43;;;16.60;99.90;;;;;;5007981;28;20022;-80
2023/09/01 01:26:58;;;;;;;0.32;0.32;;;16.60;99.90;;;;;;5004863;28;20393;-80
2023/09/01 01:29:25;;;;;;;0.00;0.00;;;16.70;99.90;;;;;;5004166;28;20033;-79
2023/09/01 01:31:53;;;;;;;0.65;0.65;;;16.70;99.90;;;;;;5002010;28;20034;-79
2023/09/01 01:34:36;;;;;;;0.00;0.00;;;16.70;99.90;;;;;;5008640;28;20014;-80
2023/09/01 01:37:29;;;;;;;0.00;0.00;;;16.50;99.90;;;;;;5001492;28;20026;-81
2023/09/01 01:39:56;;;;;;;0.38;0.38;;;16.50;99.90;;;;;;5001407;28;20489;-81
2023/09/01 01:42:23;;;;;;;0.10;0.10;;;16.50;99.90;;;;;;5007857;28;20049;-80
2023/09/01 01:44:50;;;;;;;0.05;0.05;;;16.30;99.90;;;;;;4997502;28;20038;-80
2023/09/01 01:47:20;;;;;;;0.10;0.10;;;16.30;99.90;;;;;;5001105;28;20026;-80
2023/09/01 01:49:45;;;;;;;0.00;0.00;;;16.40;99.90;;;;;;4998333;28;20687;-81
2023/09/01 01:52:11;;;;;;;0.35;0.32;;;16.40;99.90;;;;;;4996896;28;20034;-81
2023/09/01 01:54:37;;;;;;;0.10;0.10;;;16.50;99.90;;;;;;4997895;28;20053;-81
2023/09/01 01:57:03;;;;;;;0.00;0.00;;;16.60;99.90;;;;;;5000591;28;20029;-80
2023/09/01 01:59:29;;;;;;;0.00;0.00;;;16.80;99.90;;;;;;5008676;28;20026;-80
2023/09/01 02:01:54;;;;;;;0.22;0.22;;;16.90;99.90;;;;;;5005239;28;20111;-81
2023/09/01 02:04:20;;;;;;;0.20;0.20;;;16.90;99.90;;;;;;5000487;28;20507;-80
2023/09/01 02:06:46;;;;;;;2.05;1.88;;;16.80;99.90;;;;;;5005034;28;20466;-80
2023/09/01 02:09:13;;;;;;;0.00;0.00;;;16.70;99.90;;;;;;4995476;28;20046;-80
2023/09/01 02:11:39;;;;;;;0.13;0.13;;;16.70;99.90;;;;;;4991885;28;20018;-79
2023/09/01 02:14:05;;;;;;;0.00;0.00;;;16.70;99.90;;;;;;5006704;28;20137;-81
2023/09/01 02:16:32;;;;;;;0.00;0.00;;;16.80;99.90;;;;;;5008938;28;20513;-79
2023/09/01 02:18:58;;;;;;;1.00;0.93;;;16.80;99.90;;;;;;5006868;28;20058;-80
2023/09/01 02:21:24;;;;;;;0.00;0.00;;;16.80;99.90;;;;;;5004047;28;20022;-79
2023/09/01 02:23:50;;;;;;;0.00;0.00;;;16.80;99.90;;;;;;5005976;28;20026;-79
2023/09/01 02:26:23;;;;;;;0.15;0.15;;;17.00;99.90;;;;;;5007582;28;20490;-80
2023/09/01 02:28:50;;;;;;;1.48;0.65;;;17.00;99.90;;;;;;5007748;28;20033;-78
2023/09/01 02:31:16;;;;;;;2.45;1.85;;;17.00;99.90;;;;;;5005919;28;20057;-78
2023/09/01 02:33:43;;;;;;;0.00;0.00;;;16.90;99.90;;;;;;5000049;28;20421;-78
2023/09/01 02:36:41;;;;;;;0.70;0.57;;;16.80;99.90;;;;;;4992618;28;20022;-78
2023/09/01 02:39:07;;;;;;;0.43;0.43;;;16.90;99.90;;;;;;4958438;28;20099;-78
2023/09/01 02:41:33;;;;;;;0.00;0.00;;;17.00;99.90;;;;;;5005231;28;20034;-78
2023/09/01 02:43:58;;;;;;;0.00;0.00;;;17.00;99.90;;;;;;5007603;28;20038;-79
2023/09/01 02:46:24;;;;;;;0.00;0.00;;;16.90;99.90;;;;;;5009446;28;20030;-79
2023/09/01 02:48:51;;;;;;;0.00;0.00;;;16.90;99.90;;;;;;5009617;28;20018;-78
2023/09/01 02:51:17;;;;;;;0.10;0.10;;;17.00;99.90;;;;;;5009325;28;20079;-79
2023/09/01 02:53:43;;;;;;;0.30;0.30;;;16.80;99.90;;;;;;5009362;28;20045;-78
2023/09/01 02:56:09;;;;;;;0.00;0.00;;;16.90;99.90;;;;;;5009267;28;20029;-79
2023/09/01 02:58:36;;;;;;;0.00;0.00;;;16.80;99.90;;;;;;5009593;28;20064;-79
2023/09/01 03:01:07;;;;;;;0.00;0.00;;;16.90;99.90;;;;;;4992017;28;20038;-78
2023/09/01 03:03:35;;;;;;;0.93;0.55;;;17.10;99.90;;;;;;5013367;28;20029;-78
2023/09/01 03:06:05;;;;;;;0.00;0.00;;;17.10;99.90;;;;;;4997984;28;20516;-78
2023/09/01 03:08:31;;;;;;;0.10;0.10;;;17.10;99.90;;;;;;5010119;28;20041;-78
2023/09/01 03:10:57;;;;;;;0.70;0.70;;;17.10;99.90;;;;;;5012625;28;20381;-78
2023/09/01 03:13:23;;;;;;;3.60;3.30;;;17.10;99.90;;;;;;5012135;28;20034;-78
2023/09/01 03:15:49;;;;;;;0.00;0.00;;;17.00;99.90;;;;;;5011471;28;20032;-78
2023/09/01 03:18:15;;;;;;;0.00;0.00;;;17.20;99.90;;;;;;5011367;28;20022;-79
2023/09/01 03:20:41;;;;;;;0.00;0.00;;;17.20;99.90;;;;;;5005923;28;20053;-78
2023/09/01 03:23:07;;;;;;;0.00;0.00;;;17.30;99.90;;;;;;5017137;28;20022;-79
2023/09/01 03:25:33;;;;;;;0.00;0.00;;;17.30;99.90;;;;;;5010777;28;20026;-79
2023/09/01 03:28:00;;;;;;;0.00;0.00;;;17.30;99.90;;;;;;5002104;28;20052;-79
2023/09/01 03:30:26;;;;;;;0.00;0.00;;;17.30;99.90;;;;;;5005111;28;20521;-79
2023/09/01 03:32:53;;;;;;;0.00;0.00;;;17.30;99.90;;;;;;5013604;28;20091;-79
2023/09/01 03:35:19;;;;;;;0.00;0.00;;;17.20;99.90;;;;;;4999727;28;20030;-79
2023/09/01 03:37:45;;;;;;;0.00;0.00;;;17.20;99.90;;;;;;5002419;28;20018;-80
2023/09/01 03:40:11;;;;;;;5.53;0.70;;;17.20;99.90;;;;;;5011044;28;20115;-79
2023/09/01 03:42:37;;;;;;;0.10;0.10;;;17.20;99.90;;;;;;4994708;28;20474;-80
2023/09/01 03:45:04;;;;;;;0.10;0.10;;;17.10;99.90;;;;;;5022904;28;20486;-79
2023/09/01 03:47:30;;;;;;;0.00;0.00;;;17.10;99.90;;;;;;5011627;28;20078;-80
2023/09/01 03:49:56;;;;;;;0.00;0.00;;;17.20;99.90;;;;;;5010886;28;20026;-79
2023/09/01 03:52:24;;;;;;;0.00;0.00;;;17.10;99.90;;;;;;5010649;28;20086;-80
2023/09/01 03:54:50;;;;;;;0.85;0.82;;;17.20;99.90;;;;;;5012061;28;20117;-79
2023/09/01 03:57:17;;;;;;;0.22;0.22;;;17.20;99.90;;;;;;5011818;28;20541;-79
2023/09/01 03:59:43;;;;;;;0.20;0.20;;;17.20;99.90;;;;;;5010608;28;20065;-79
2023/09/01 04:02:09;;;;;;;0.10;0.10;;;17.10;99.90;;;;;;5011070;28;20030;-80
2023/09/01 04:04:35;;;;;;;0.00;0.00;;;17.10;99.90;;;;;;5011945;28;20430;-80
2023/09/01 04:07:00;;;;;;;0.00;0.00;;;17.30;99.90;;;;;;5010537;28;20113;-80
2023/09/01 04:09:27;;;;;;;0.00;0.00;;;17.20;99.90;;;;;;5011497;28;20038;-79
2023/09/01 04:11:54;;;;;;;0.08;0.08;;;17.20;99.90;;;;;;5010203;28;20508;-80
2023/09/01 04:14:20;;;;;;;0.00;0.00;;;17.20;99.90;;;;;;5010747;28;20052;-79
2023/09/01 04:16:46;;;;;;;0.10;0.10;;;17.30;99.90;;;;;;5003207;28;20062;-79
2023/09/01 04:19:12;;;;;;;0.00;0.00;;;17.20;99.90;;;;;;5008521;28;20041;-79
2023/09/01 04:21:38;;;;;;;0.00;0.00;;;17.00;99.90;;;;;;5011554;28;20026;-79
2023/09/01 04:24:04;;;;;;;0.00;0.00;;;17.20;99.90;;;;;;5010175;28;20022;-79
2023/09/01 04:26:31;;;;;;;0.00;0.00;;;17.20;99.90;;;;;;5010170;28;20026;-80
2023/09/01 04:28:57;;;;;;;0.00;0.00;;;17.20;99.90;;;;;;5011554;28;20036;-80
2023/09/01 04:31:28;;;;;;;0.28;0.28;;;17.30;99.90;;;;;;5009660;28;20042;-80
2023/09/01 04:33:57;;;;;;;0.28;0.28;;;17.30;99.90;;;;;;5026867;28;20042;-80
2023/09/01 04:36:23;;;;;;;0.00;0.00;;;17.20;99.90;;;;;;5010286;28;20026;-79
2023/09/01 04:38:50;;;;;;;0.32;0.32;;;17.30;99.90;;;;;;5009901;28;20049;-80
2023/09/01 04:41:16;;;;;;;0.00;0.00;;;17.40;99.90;;;;;;4994020;28;20025;-80
2023/09/01 04:43:42;;;;;;;0.00;0.00;;;17.50;99.90;;;;;;5010128;28;20398;-79
2023/09/01 04:46:08;;;;;;;0.00;0.00;;;17.50;99.90;;;;;;5011077;28;20036;-79
2023/09/01 04:48:34;;;;;;;0.00;0.00;;;17.50;99.90;;;;;;5011129;28;20120;-79
2023/09/01 04:51:02;;;;;;;0.00;0.00;;;17.50;99.90;;;;;;5011454;28;20056;-79
2023/09/01 04:53:29;;;;;;;0.65;0.65;;;17.50;99.90;;;;;;5010792;28;20046;-80
2023/09/01 04:55:55;;;;;;;0.00;0.00;;;17.50;99.90;;;;;;5010245;28;20033;-80
2023/09/01 04:58:21;;;;;;;0.17;0.17;;;17.60;99.90;;;;;;5026164;28;20375;-80
2023/09/01 05:00:51;;;;;;;0.00;0.00;;;17.40;99.90;;;;;;5004322;28;20029;-79
2023/09/01 05:03:17;;;;;;;0.00;0.00;;;17.20;99.90;;;;;;5009339;28;20037;-79
2023/09/01 05:05:43;;;;;;;0.00;0.00;;;17.30;99.90;;;;;;5009463;28;20018;-79
2023/09/01 05:08:09;;;;;;;0.00;0.00;;;17.40;99.90;;;;;;5011067;28;20026;-79
2023/09/01 05:10:35;;;;;;;0.00;0.00;;;17.50;99.90;;;;;;5007189;28;20015;-79
2023/09/01 05:13:01;;;;;;;0.00;0.00;;;17.50;99.90;;;;;;5005916;28;20371;-79
2023/09/01 05:15:27;;;;;;;0.00;0.00;;;17.50;99.90;;;;;;4988589;28;20026;-79
2023/09/01 05:17:52;;;;;;;0.00;0.00;;;17.50;99.90;;;;;;5020728;28;20022;-79
2023/09/01 05:20:18;;;;;;;0.00;0.00;;;17.40;99.90;;;;;;4998874;28;20524;-79
2023/09/01 05:22:44;;;;;;;0.00;0.00;;;17.40;99.90;;;;;;4999361;28;20058;-78
2023/09/01 05:25:11;;;;;;;0.63;0.57;;;17.60;99.90;;;;;;5009108;28;20036;-81
2023/09/01 05:27:37;;;;;;;0.00;0.00;;;17.70;99.90;;;;;;5002190;28;20030;-82
2023/09/01 05:30:03;;;;;;;0.10;0.10;;;17.60;99.90;;;;;;5009846;28;20018;-82
2023/09/01 05:32:30;;;;;;;3.30;0.82;;;17.60;99.90;;;;;;5008688;28;20045;-79
2023/09/01 05:34:56;;;;;;;0.77;0.77;;;17.60;99.90;;;;;;5073070;27;20034;-79
2023/09/01 05:37:22;;;;;;;1.55;1.25;;;17.40;99.90;;;;;;5004410;28;20474;-79
2023/09/01 05:39:47;;;;;;;1.17;1.08;;;17.30;99.90;;;;;;5047435;28;20051;-79
2023/09/01 05:42:14;;;;;;;2.63;0.82;;;17.20;99.90;;;;;;5014135;28;20105;-78
2023/09/01 05:44:41;;;;;;;0.30;0.28;;;17.30;99.90;;;;;;5064689;28;20562;-80
2023/09/01 05:47:07;;;;;;;0.20;0.20;;;17.30;99.90;;;;;;5068777;28;20059;-79
2023/09/01 05:49:34;;;;;;;0.55;0.55;;;17.10;99.90;;;;;;5049014;28;20474;-78
2023/09/01 05:52:01;;;;;;;0.10;0.10;;;17.20;99.90;;;;;;5040218;28;20023;-79
2023/09/01 05:54:27;;;;;;;1.65;0.65;;;17.30;99.90;;;;;;5011285;28;20474;-79
2023/09/01 05:56:53;;;;;;;0.52;0.52;;;17.40;99.90;;;;;;5070578;28;20027;-79
2023/09/01 05:59:19;;;;;;;0.63;0.63;;;17.50;99.90;;;;;;5057744;28;20036;-78
2023/09/01 06:01:46;;;;;;;0.05;0.05;;;17.40;99.90;;;;;;5051053;28;20035;-78
2023/09/01 06:04:12;;;;;;;0.00;0.00;;;17.60;99.90;;;;;;5019898;28;20591;-79
2023/09/01 06:06:40;;;;;;;4.70;1.75;;;17.50;99.90;;;;;;5065437;28;20115;-79
2023/09/01 06:09:07;;;;;;;0.20;0.20;;;17.70;99.90;;;;;;5079672;28;20075;-83
2023/09/01 06:11:35;;;;;;;0.00;0.00;;;17.70;99.90;;;;;;5060197;28;20438;-79
2023/09/01 06:14:01;;;;;;;0.00;0.00;;;17.80;99.90;;;;;;5024511;28;20093;-78
2023/09/01 06:16:27;;;;;;;0.00;0.00;;;17.90;99.90;;;;;;5014886;28;20018;-81
2023/09/01 06:18:53;;;;;;;0.00;0.00;;;17.90;99.90;;;;;;5027743;28;20381;-78
2023/09/01 06:21:19;;;;;;;0.00;0.00;;;17.90;99.90;;;;;;5031910;28;20022;-79
2023/09/01 06:23:46;;;;;;;0.00;0.00;;;17.90;99.90;;;;;;5025041;28;20485;-80
2023/09/01 06:26:19;;;;;;;0.00;0.00;;;18.00;99.90;;;;;;5024032;28;20381;-79
2023/09/01 06:28:46;;;;;;;0.00;0.00;;;18.10;99.90;;;;;;5010198;28;20026;-79
2023/09/01 06:31:13;;;;;;;0.00;0.00;;;18.00;99.90;;;;;;5043449;28;20033;-79
2023/09/01 06:33:42;;;;;;;0.00;0.00;;;18.00;99.90;;;;;;5037437;28;20042;-86
2023/09/01 06:36:13;;;;;;;0.00;0.00;;;18.00;99.90;;;;;;5075706;28;20069;-79
2023/09/01 06:38:41;;;;;;;0.60;0.60;;;17.80;99.90;;;;;;5023473;28;20116;-77
2023/09/01 06:41:08;;;;;;;0.00;0.00;;;17.70;99.90;;;;;;5011425;28;20097;-78
2023/09/01 06:43:34;;;;;;;0.00;0.00;;;17.70;99.90;;;;;;5011956;28;20022;-78
2023/09/01 06:46:00;;;;;;;0.00;0.00;;;17.70;99.90;;;;;;5012687;28;20026;-87
2023/09/01 06:48:26;;;;;;;0.08;0.08;;;17.80;99.90;;;;;;5012769;28;20071;-80
2023/09/01 06:50:52;;;;;;;0.00;0.00;;;18.00;99.90;;;;;;5011762;28;20046;-78
2023/09/01 06:53:18;;;;;;;0.00;0.00;;;18.00;99.90;;;;;;5003453;28;20042;-79
2023/09/01 06:55:46;;;;;;;0.00;0.00;;;18.10;99.90;;;;;;5010897;28;20014;-79
2023/09/01 06:58:13;;;;;;;0.00;0.00;;;18.20;99.90;;;;;;5012337;28;20041;-79
2023/09/01 07:00:39;;;;;;;0.00;0.00;;;18.20;99.90;;;;;;5012028;28;20382;-86
2023/09/01 07:03:05;;;;;;;0.00;0.00;;;18.20;99.90;;;;;;5012506;28;20030;-78
2023/09/01 07:05:31;;;;;;;0.38;0.38;;;18.10;99.90;;;;;;5012602;28;20048;-78
2023/09/01 07:07:56;;;;;;;0.22;0.22;;;18.10;99.90;;;;;;5012486;28;20037;-78
2023/09/01 07:10:22;;;;;;;0.00;0.00;;;18.00;99.90;;;;;;5011864;28;20033;-79
2023/09/01 07:12:48;;;;;;;0.00;0.00;;;18.00;99.90;;;;;;5010109;28;20037;-79
2023/09/01 07:15:14;;;;;;;0.00;0.00;;;18.00;99.90;;;;;;5011579;28;20171;-79
2023/09/01 07:17:40;;;;;;;0.00;0.00;;;18.00;99.90;;;;;;5029347;28;20034;-79
2023/09/01 07:20:06;;;;;;;0.00;0.00;;;18.30;99.90;;;;;;5067312;28;20020;-79
2023/09/01 07:22:32;;;;;;;0.00;0.00;;;18.20;99.90;;;;;;5026198;28;20142;-78
2023/09/01 07:24:58;;;;;;;0.70;0.70;;;18.20;99.90;;;;;;5009328;28;20109;-79
2023/09/01 07:27:24;;;;;;;0.00;0.00;;;18.10;99.90;;;;;;5008386;28;20106;-79
2023/09/01 07:29:50;;;;;;;0.00;0.00;;;18.10;99.90;;;;;;5069691;28;20041;-81
2023/09/01 07:32:16;;;;;;;14.43;1.65;;;18.30;99.90;;;;;;5063815;28;20056;-82
2023/09/01 07:34:42;;;;;;;0.00;0.00;;;18.20;99.90;;;;;;5087683;28;20391;-81
2023/09/01 07:37:08;;;;;;;0.00;0.00;;;18.20;99.90;;;;;;5044214;28;20101;-81
2023/09/01 07:39:37;;;;;;;0.00;0.00;;;18.20;99.90;;;;;;5032824;28;20073;-80
2023/09/01 07:42:07;;;;;;;0.00;0.00;;;18.30;99.90;;;;;;5029390;28;20019;-80
2023/09/01 07:44:33;;;;;;;0.00;0.00;;;18.20;99.90;;;;;;5097802;28;20038;-79
2023/09/01 07:46:59;;;;;;;0.00;0.00;;;18.30;99.90;;;;;;5067700;28;20018;-81
2023/09/01 07:49:25;;;;;;;0.00;0.00;;;18.50;99.90;;;;;;5040059;28;20025;-80
2023/09/01 07:51:51;;;;;;;0.00;0.00;;;18.50;99.90;;;;;;5031982;28;20032;-80
2023/09/01 07:54:16;;;;;;;0.10;0.10;;;18.50;99.90;;;;;;5037631;28;20020;-80
2023/09/01 07:56:42;;;;;;;0.00;0.00;;;18.40;99.90;;;;;;5090073;28;20556;-81
2023/09/01 07:59:08;;;;;;;0.00;0.00;;;18.60;99.90;;;;;;5050726;28;20049;-80
2023/09/01 08:01:34;;;;;;;0.05;0.05;;;18.60;99.90;;;;;;5023710;28;20030;-79
2023/09/01 08:04:00;;;;;;;0.20;0.20;;;18.70;99.90;;;;;;5007670;28;20022;-80
2023/09/01 08:06:29;;;;;;;0.00;0.00;;;18.70;99.90;;;;;;5045385;28;20023;-81
2023/09/01 08:08:55;;;;;;;0.00;0.00;;;18.60;99.90;;;;;;5079078;28;20487;-79
2023/09/01 08:11:21;;;;;;;0.00;0.00;;;18.60;99.90;;;;;;5038354;28;20041;-81
2023/09/01 08:13:47;;;;;;;0.00;0.00;;;18.60;99.90;;;;;;5054716;27;20050;-79
2023/09/01 08:16:15;;;;;;;0.00;0.00;;;18.60;99.90;;;;;;5022340;28;20078;-79
2023/09/01 08:18:41;;;;;;;0.00;0.00;;;18.80;99.90;;;;;;5058039;28;20058;-78
2023/09/01 08:21:07;;;;;;;0.00;0.00;;;18.80;99.90;;;;;;5049662;28;20043;-78
2023/09/01 08:23:33;;;;;;;0.00;0.00;;;18.90;99.90;;;;;;5030294;28;20113;-78
2023/09/01 08:26:04;;;;;;;0.17;0.17;;;18.80;99.90;;;;;;5032587;28;20015;-78
2023/09/01 08:28:31;;;;;;;0.00;0.00;;;18.90;99.90;;;;;;5045246;28;20369;-78
2023/09/01 08:31:04;;;;;;;0.00;0.00;;;18.80;99.90;;;;;;5028166;28;20025;-78
2023/09/01 08:33:30;;;;;;;0.00;0.00;;;19.00;99.90;;;;;;5064468;28;20046;-78
2023/09/01 08:35:56;;;;;;;0.10;0.10;;;18.90;99.90;;;;;;5063181;28;20075;-78
2023/09/01 08:38:22;;;;;;;0.00;0.00;;;18.90;99.90;;;;;;5019970;28;20087;-79
2023/09/01 08:40:48;;;;;;;0.40;0.40;;;18.80;99.90;;;;;;4997835;28;20109;-78
2023/09/01 08:43:16;;;;;;;0.00;0.00;;;18.60;99.90;;;;;;5058130;28;20123;-78
2023/09/01 08:45:42;;;;;;;0.00;0.00;;;18.60;99.90;;;;;;5033873;28;20393;-78
2023/09/01 08:48:08;;;;;;;0.00;0.00;;;18.60;99.90;;;;;;5053582;28;20027;-78
2023/09/01 08:50:34;;;;;;;0.10;0.10;;;18.80;99.90;;;;;;5032858;28;20385;-78
2023/09/01 08:53:03;;;;;;;0.00;0.00;;;18.70;99.90;;;;;;5013969;28;20029;-78
2023/09/01 08:55:30;;;;;;;0.00;0.00;;;18.50;99.90;;;;;;5024201;28;20041;-78
2023/09/01 08:57:55;;;;;;;0.10;0.10;;;18.70;99.90;;;;;;5033076;28;20672;-79
2023/09/01 09:00:21;;;;;;;1.65;0.55;;;18.80;99.90;;;;;;5058777;28;20066;-78
2023/09/01 09:02:47;;;;;;;2.17;0.80;;;18.80;99.90;;;;;;5023064;28;20034;-79
2023/09/01 09:05:14;;;;;;;0.00;0.00;;;18.70;99.90;;;;;;5040438;28;20037;-79
2023/09/01 09:07:40;;;;;;;0.00;0.00;;;18.70;99.90;;;;;;5030169;28;20034;-79
2023/09/01 09:10:06;;;;;;;0.20;0.20;;;18.80;99.90;;;;;;5033528;28;20016;-78
2023/09/01 09:12:37;;;;;;;0.00;0.00;;;18.80;99.90;;;;;;5043111;28;20436;-79
2023/09/01 09:15:05;;;;;;;0.32;0.32;;;19.00;99.90;;;;;;5018613;28;20026;-78
2023/09/01 09:17:46;;;;;;;0.00;0.00;;;18.90;99.90;;;;;;5036081;28;20116;-78
2023/09/01 09:20:14;;;;;;;0.75;0.50;;;19.00;99.90;;;;;;5010478;28;20029;-78
2023/09/01 09:23:06;;;;;;;0.00;0.00;;;19.00;99.90;;;;;;5036747;28;20077;-78
2023/09/01 09:25:34;;;;;;;0.00;0.00;;;19.10;99.90;;;;;;5018017;28;20574;-79
2023/09/01 09:28:11;;;;;;;0.00;0.00;;;19.20;99.90;;;;;;5032081;28;20019;-78
2023/09/01 09:30:47;;;;;;;0.00;0.00;;;19.40;99.90;;;;;;5012115;28;20041;-79
2023/09/01 09:33:13;;;;;;;0.00;0.00;;;19.50;99.90;;;;;;5069283;28;20051;-78
2023/09/01 09:35:50;;;;;;;0.00;0.00;;;19.40;99.90;;;;;;5058646;28;20030;-79
2023/09/01 09:38:17;;;;;;;0.00;0.00;;;19.40;99.90;;;;;;5029867;28;20168;-79
2023/09/01 09:40:56;;;;;;;0.00;0.00;;;19.50;99.90;;;;;;5008973;28;20089;-79
2023/09/01 09:43:22;;;;;;;0.00;0.00;;;19.60;99.90;;;;;;5010361;28;20034;-79
2023/09/01 09:45:51;;;;;;;0.00;0.00;;;19.70;99.90;;;;;;5010356;28;20022;-76
2023/09/01 09:48:17;;;;;;;0.00;0.00;;;19.40;99.90;;;;;;5009921;28;20033;-77
2023/09/01 09:50:45;;;;;;;0.00;0.00;;;19.30;99.90;;;;;;5025191;28;20049;-77
2023/09/01 09:53:16;;;;;;;0.17;0.15;;;19.30;99.90;;;;;;5010462;28;20087;-77
2023/09/01 09:55:45;;;;;;;0.10;0.10;;;19.20;99.90;;;;;;5010228;28;20034;-77
2023/09/01 09:58:12;;;;;;;0.00;0.00;;;19.30;99.90;;;;;;5009139;28;20022;-78
2023/09/01 10:00:42;;;;;;;0.00;0.00;;;19.60;99.90;;;;;;5009983;28;20034;-78
2023/09/01 10:03:09;;;;;;;0.10;0.10;;;19.70;99.90;;;;;;5010198;28;20034;-77
2023/09/01 10:05:35;;;;;;;0.20;0.10;;;19.70;99.90;;;;;;5008509;28;20034;-77
2023/09/01 10:08:06;;;;;;;0.50;0.50;;;19.80;99.90;;;;;;5010265;28;20018;-77
2023/09/01 10:10:33;;;;;;;0.00;0.00;;;19.80;99.90;;;;;;5009782;28;20045;-74
2023/09/01 10:13:06;;;;;;;0.00;0.00;;;19.80;99.90;;;;;;5024000;28;20445;-77
2023/09/01 10:15:34;;;;;;;0.22;0.22;;;19.70;99.90;;;;;;5031966;28;20033;-77
2023/09/01 10:18:08;;;;;;;0.00;0.00;;;19.70;99.90;;;;;;5019825;28;20014;-76
2023/09/01 10:20:35;;;;;;;0.10;0.10;;;19.50;99.90;;;;;;5028409;28;20030;-77
2023/09/01 10:23:05;;;;;;;0.55;0.10;;;19.40;99.90;;;;;;5020425;28;20030;-77
2023/09/01 10:25:31;;;;;;;0.25;0.25;;;19.50;99.90;;;;;;5059990;28;20141;-78
2023/09/01 10:28:04;;;;;;;0.00;0.00;;;19.70;99.90;;;;;;5027858;28;20494;-76
2023/09/01 10:30:40;;;;;;;0.55;0.45;;;19.90;99.90;;;;;;5015623;28;20121;-78
2023/09/01 10:33:24;;;;;;;0.30;0.30;;;19.70;99.90;;;;;;4989255;28;20030;-78
2023/09/01 10:35:52;;;;;;;0.00;0.00;;;19.60;99.90;;;;;;5016587;28;20045;-80
2023/09/01 10:38:20;;;;;;;0.77;0.73;;;19.90;99.90;;;;;;5076558;28;20051;-79
2023/09/01 10:40:48;;;;;;;0.10;0.10;;;19.70;99.90;;;;;;5075171;28;20037;-79
2023/09/01 10:43:34;;;;;;;0.05;0.05;;;19.60;99.90;;;;;;5036365;28;20097;-80
2023/09/01 10:46:12;;;;;;;0.28;0.28;;;20.00;99.90;;;;;;5024645;28;20109;-79
2023/09/01 10:48:58;;;;;;;0.00;0.00;;;20.10;99.90;;;;;;5031455;28;20402;-79
2023/09/01 10:51:33;;;;;;;0.00;0.00;;;21.00;99.90;;;;;;5046977;28;20036;-79
2023/09/01 10:54:00;;;;;;;0.13;0.13;;;21.10;99.90;;;;;;5052126;28;20041;-80
2023/09/01 10:56:28;;;;;;;0.00;0.00;;;21.30;99.90;;;;;;5033183;28;20038;-80
2023/09/01 10:58:56;;;;;;;0.00;0.00;;;21.60;99.90;;;;;;5035392;28;20019;-80
2023/09/01 11:01:36;;;;;;;0.00;0.00;;;21.50;99.90;;;;;;4991461;28;20054;-79
2023/09/01 11:04:14;;;;;;;0.32;0.32;;;21.20;99.90;;;;;;5052996;28;20669;-80
2023/09/01 11:06:58;;;;;;;0.00;0.00;;;20.90;99.90;;;;;;5031310;28;20513;-81
2023/09/01 11:09:43;;;;;;;0.00;0.00;;;21.40;99.90;;;;;;5016927;28;20546;-80
2023/09/01 11:12:10;;;;;;;0.13;0.13;;;21.70;99.90;;;;;;5049583;28;20493;-79
2023/09/01 11:14:38;;;;;;;1.98;0.20;;;21.00;99.90;;;;;;5047446;28;20105;-79
2023/09/01 11:17:04;;;;;;;0.85;0.20;;;20.60;99.90;;;;;;5024363;28;20082;-78
2023/09/01 11:19:33;;;;;;;0.10;0.10;;;20.60;99.90;;;;;;5008785;28;20034;-80
2023/09/01 11:22:00;;;;;;;0.10;0.10;;;20.50;99.90;;;;;;5007424;28;20018;-79
2023/09/01 11:24:26;;;;;;;0.00;0.00;;;20.40;99.90;;;;;;5012064;28;20026;-79
2023/09/01 11:26:52;;;;;;;9.75;1.58;;;20.80;99.90;;;;;;5011746;28;20061;-80
2023/09/01 11:29:21;;;;;;;0.25;0.25;;;21.00;99.90;;;;;;5011655;28;20022;-80
2023/09/01 11:31:47;;;;;;;0.50;0.50;;;21.40;99.90;;;;;;5012441;28;20102;-78
2023/09/01 11:34:14;;;;;;;4.50;4.20;;;21.30;99.90;;;;;;5012107;28;20117;-78
2023/09/01 11:36:50;;;;;;;0.00;0.00;;;21.50;99.90;;;;;;5012128;28;20026;-78
2023/09/01 11:39:16;;;;;;;0.08;0.08;;;21.80;99.90;;;;;;5012548;28;20033;-79
2023/09/01 11:41:43;;;;;;;0.00;0.00;;;22.20;99.90;;;;;;5012140;28;20075;-77
2023/09/01 11:44:09;;;;;;;0.00;0.00;;;22.20;99.90;;;;;;5012438;28;20097;-77
2023/09/01 11:46:36;;;;;;;0.10;0.10;;;22.70;99.90;;;;;;5012038;28;20071;-80
2023/09/01 11:49:03;;;;;;;0.32;0.30;;;22.20;99.90;;;;;;5012601;28;20021;-78
2023/09/01 11:51:32;;;;;;;0.25;0.17;;;21.90;99.90;;;;;;5012084;28;20190;-78
2023/09/01 11:53:58;;;;;;;0.93;0.63;;;22.00;99.90;;;;;;5011750;28;20470;-78
2023/09/01 11:56:24;;;;;;;0.00;0.00;;;21.40;99.90;;;;;;5012186;28;20018;-78
2023/09/01 11:58:52;;;;;;;0.00;0.00;;;21.70;99.90;;;;;;5011852;28;20041;-78
2023/09/01 12:01:23;;;;;;;0.00;0.00;;;22.00;99.90;;;;;;5008127;28;20030;-78
2023/09/01 12:03:51;;;;;;;0.47;0.47;;;22.30;99.90;;;;;;5007955;28;20040;-78
2023/09/01 12:06:24;;;;;;;0.32;0.28;;;23.40;99.90;;;;;;5010858;28;20024;-78
2023/09/01 12:08:53;;;;;;;0.10;0.10;;;23.70;99.90;;;;;;5010295;28;20034;-78
2023/09/01 12:11:19;;;;;;;0.00;0.00;;;23.00;99.90;;;;;;5010471;28;20482;-78
2023/09/01 12:13:46;;;;;;;0.00;0.00;;;23.30;99.90;;;;;;5011778;28;20029;-78
2023/09/01 12:16:24;;;;;;;0.10;0.10;;;24.10;99.90;;;;;;5011553;28;20026;-78
2023/09/01 12:18:51;;;;;;;0.10;0.10;;;23.80;99.90;;;;;;5005377;28;20037;-79
2023/09/01 12:21:17;;;;;;;0.00;0.00;;;24.60;99.90;;;;;;5011389;28;20049;-79
2023/09/01 12:23:46;;;;;;;0.00;0.00;;;23.90;99.90;;;;;;5011678;28;20525;-78
2023/09/01 12:26:15;;;;;;;0.00;0.00;;;23.90;99.90;;;;;;5010976;28;20032;-78
2023/09/01 12:28:42;;;;;;;0.00;0.00;;;24.50;99.90;;;;;;5011540;28;20034;-79
2023/09/01 12:31:09;;;;;;;0.17;0.17;;;25.40;99.90;;;;;;5011244;28;20377;-78
2023/09/01 12:33:36;;;;;;;0.00;0.00;;;25.70;99.90;;;;;;5007216;28;20057;-78
2023/09/01 12:36:03;;;;;;;0.00;0.00;;;25.00;99.90;;;;;;5010990;28;20029;-78
2023/09/01 12:38:28;;;;;;;0.00;0.00;;;24.60;99.90;;;;;;5011330;28;20026;-78
2023/09/01 12:40:55;;;;;;;0.00;0.00;;;23.80;99.90;;;;;;5005130;28;20382;-78
2023/09/01 12:43:21;;;;;;;0.00;0.00;;;23.30;99.90;;;;;;4995410;28;20027;-77
2023/09/01 12:45:47;;;;;;;0.00;0.00;;;23.00;99.90;;;;;;5010513;28;20022;-78
2023/09/01 12:48:16;;;;;;;0.00;0.00;;;23.10;99.90;;;;;;5011509;28;20584;-78
2023/09/01 12:50:48;;;;;;;0.00;0.00;;;23.00;99.90;;;;;;5009643;28;20026;-78
2023/09/01 12:53:15;;;;;;;0.08;0.08;;;23.70;99.90;;;;;;5010162;28;20038;-78